createdAt,value
2023-02-22T00:01:35.319Z,114.72
2023-02-22T00:04:07.477Z,111.75
2023-02-22T00:06:39.686Z,118.53
2023-02-22T00:09:11.532Z,121.95
2023-02-22T00:11:48.198Z,125.68
2023-02-22T00:14:20.531Z,117.07
2023-02-22T00:16:52.836Z,117.28
2023-02-22T00:19:30.204Z,118.65
2023-02-22T00:22:02.112Z,122.53
2023-02-22T00:24:36.169Z,121.85
2023-02-22T00:27:08.018Z,123.45
2023-02-22T00:29:45.593Z,131.07
2023-02-22T00:32:17.569Z,124.25
2023-02-22T00:34:54.728Z,122.90
2023-02-22T00:37:31.561Z,135.60
2023-02-22T00:40:08.442Z,133.45
2023-02-22T00:42:40.301Z,128.43
2023-02-22T00:45:14.349Z,130.63
2023-02-22T00:47:46.319Z,127.65
2023-02-22T00:50:21.025Z,129.40
2023-02-22T00:52:54.197Z,133.05
2023-02-22T00:55:31.951Z,127.13
2023-02-22T00:58:05.531Z,122.60
2023-02-22T01:00:39.900Z,138.30
2023-02-22T01:03:15.138Z,133.43
2023-02-22T01:05:47.760Z,130.57
2023-02-22T01:08:20.112Z,131.30
2023-02-22T01:10:52.665Z,132.25
2023-02-22T01:13:24.684Z,130.88
2023-02-22T01:15:57.418Z,136.57
2023-02-22T01:18:29.318Z,123.00
2023-02-22T01:21:01.758Z,131.70
2023-02-22T01:23:33.621Z,137.98
2023-02-22T01:26:06.128Z,141.63
2023-02-22T01:28:39.168Z,131.38
2023-02-22T01:31:11.221Z,136.95
2023-02-22T01:33:46.249Z,127.68
2023-02-22T01:36:19.563Z,124.47
2023-02-22T01:38:51.575Z,124.70
2023-02-22T01:41:23.488Z,128.93
2023-02-22T01:43:55.812Z,131.35
2023-02-22T01:46:29.738Z,129.07
2023-02-22T01:49:06.138Z,132.15
2023-02-22T01:51:43.086Z,127.03
2023-02-22T01:54:17.749Z,137.45
2023-02-22T01:57:12.547Z,134.43
2023-02-22T01:59:48.667Z,137.55
2023-02-22T02:02:21.738Z,138.50
2023-02-22T02:04:56.314Z,132.93
2023-02-22T02:07:29.683Z,141.73
2023-02-22T02:10:05.085Z,137.50
2023-02-22T02:12:37.278Z,140.25
2023-02-22T02:15:22.361Z,134.45
2023-02-22T02:17:57.070Z,132.63
2023-02-22T02:20:55.310Z,137.98
2023-02-22T02:23:45.575Z,137.43
2023-02-22T02:26:48.461Z,147.50
2023-02-22T02:29:29.525Z,145.07
2023-02-22T02:32:33.245Z,141.57
2023-02-22T02:35:17.669Z,143.30
2023-02-22T02:38:32.270Z,140.60
2023-02-22T02:41:43.293Z,142.43
2023-02-22T02:44:22.705Z,133.77
2023-02-22T02:47:13.132Z,143.85
2023-02-22T02:49:55.513Z,141.40
2023-02-22T02:52:29.233Z,140.02
2023-02-22T02:55:04.628Z,132.70
2023-02-22T02:57:36.524Z,137.60
2023-02-22T03:00:24.528Z,142.68
2023-02-22T03:03:02.576Z,141.13
2023-02-22T03:05:52.651Z,144.77
2023-02-22T03:11:15.073Z,141.25
2023-02-22T03:14:04.057Z,139.57
2023-02-22T03:16:50.250Z,146.25
2023-02-22T03:19:45.917Z,141.85
2023-02-22T03:22:27.554Z,135.43
2023-02-22T03:28:11.571Z,139.32
2023-02-22T03:30:57.531Z,139.35
2023-02-22T03:33:52.164Z,134.88
2023-02-22T03:36:50.520Z,139.32
2023-02-22T03:39:31.046Z,139.68
2023-02-22T03:42:12.552Z,148.23
2023-02-22T03:44:47.168Z,135.25
2023-02-22T03:47:28.431Z,140.45
2023-02-22T03:50:11.342Z,130.13
2023-02-22T03:52:44.834Z,139.38
2023-02-22T03:55:23.836Z,130.93
2023-02-22T03:57:59.409Z,141.73
2023-02-22T04:00:35.448Z,138.07
2023-02-22T04:03:07.433Z,139.90
2023-02-22T04:05:39.374Z,134.48
2023-02-22T04:08:11.462Z,133.63
2023-02-22T04:10:43.438Z,139.43
2023-02-22T04:13:15.473Z,139.88
2023-02-22T04:15:51.512Z,144.32
2023-02-22T04:18:23.334Z,141.20
2023-02-22T04:20:56.170Z,139.35
2023-02-22T04:23:38.985Z,142.07
2023-02-22T04:26:11.026Z,138.60
2023-02-22T04:28:43.873Z,135.30
2023-02-22T04:31:20.862Z,130.52
2023-02-22T04:33:54.355Z,135.45
2023-02-22T04:36:33.414Z,136.50
2023-02-22T04:39:06.234Z,135.43
2023-02-22T04:41:38.307Z,138.88
2023-02-22T04:44:11.562Z,136.48
2023-02-22T04:46:43.513Z,139.82
2023-02-22T04:49:18.302Z,134.00
2023-02-22T04:51:51.593Z,134.43
2023-02-22T04:54:27.718Z,140.05
2023-02-22T04:56:59.603Z,137.55
2023-02-22T04:59:32.966Z,125.35
2023-02-22T05:02:06.336Z,141.70
2023-02-22T05:04:39.210Z,127.28
2023-02-22T05:07:11.352Z,139.65
2023-02-22T05:09:43.545Z,130.95
2023-02-22T05:12:15.914Z,142.52
2023-02-22T05:14:47.716Z,133.63
2023-02-22T05:17:19.554Z,136.73
2023-02-22T05:19:51.484Z,135.32
2023-02-22T05:22:24.490Z,134.90
2023-02-22T05:24:57.016Z,142.75
2023-02-22T05:27:29.005Z,130.35
2023-02-22T05:30:00.851Z,130.18
2023-02-22T05:32:32.742Z,137.70
2023-02-22T05:35:06.092Z,142.18
2023-02-22T05:37:38.014Z,140.52
2023-02-22T05:40:10.424Z,144.57
2023-02-22T05:42:42.310Z,139.93
2023-02-22T05:45:15.733Z,130.60
2023-02-22T05:47:48.104Z,132.13
2023-02-22T05:50:20.779Z,134.27
2023-02-22T05:52:53.326Z,126.78
2023-02-22T05:55:25.638Z,123.13
2023-02-22T05:57:57.519Z,133.90
2023-02-22T06:00:31.171Z,130.73
2023-02-22T06:03:06.718Z,133.23
2023-02-22T06:05:39.137Z,130.05
2023-02-22T06:08:11.333Z,123.45
2023-02-22T06:10:43.223Z,138.05
2023-02-22T06:13:15.167Z,135.38
2023-02-22T06:15:47.112Z,131.73
2023-02-22T06:18:18.947Z,137.82
2023-02-22T06:20:50.950Z,137.02
2023-02-22T06:23:23.371Z,135.27
2023-02-22T06:25:55.228Z,141.30
2023-02-22T06:28:28.203Z,133.18
2023-02-22T06:31:00.131Z,140.23
2023-02-22T06:33:32.027Z,141.48
2023-02-22T06:36:05.224Z,137.00
2023-02-22T06:38:37.125Z,228.05
2023-02-22T06:41:09.883Z,155.50
2023-02-22T06:43:41.744Z,135.88
2023-02-22T06:46:13.814Z,140.75
2023-02-22T06:48:45.672Z,140.55
2023-02-22T06:51:17.803Z,134.63
2023-02-22T06:53:49.933Z,137.40
2023-02-22T06:56:22.235Z,139.45
2023-02-22T06:58:54.121Z,133.80
2023-02-22T07:01:25.977Z,130.52
2023-02-22T07:03:57.832Z,135.73
2023-02-22T07:06:29.864Z,129.57
2023-02-22T07:09:02.251Z,135.15
2023-02-22T07:11:34.208Z,141.25
2023-02-22T07:14:06.898Z,133.13
2023-02-22T07:16:38.838Z,146.77
2023-02-22T07:19:10.735Z,133.90
2023-02-22T07:21:42.624Z,133.15
2023-02-22T07:24:14.676Z,142.63
2023-02-22T07:26:47.013Z,133.80
2023-02-22T07:29:22.558Z,144.45
2023-02-22T07:31:54.821Z,143.07
2023-02-22T07:34:26.710Z,145.75
2023-02-22T07:36:58.644Z,149.32
2023-02-22T07:39:31.341Z,150.10
2023-02-22T07:42:03.688Z,137.23
2023-02-22T07:44:35.916Z,151.73
2023-02-22T07:47:08.994Z,141.02
2023-02-22T07:49:41.015Z,149.75
2023-02-22T07:52:15.361Z,139.70
2023-02-22T07:54:47.851Z,141.68
2023-02-22T07:57:19.831Z,143.15
2023-02-22T07:59:52.700Z,145.25
2023-02-22T08:02:26.539Z,142.43
2023-02-22T08:04:59.105Z,132.77
2023-02-22T08:07:31.280Z,141.60
2023-02-22T08:10:06.756Z,137.63
2023-02-22T08:12:39.002Z,136.00
2023-02-22T08:15:20.795Z,138.90
2023-02-22T08:17:53.541Z,146.57
2023-02-22T08:20:26.221Z,355.52
2023-02-22T08:22:58.896Z,137.95
2023-02-22T08:25:31.796Z,134.43
2023-02-22T08:28:10.192Z,143.05
2023-02-22T08:30:43.834Z,133.23
2023-02-22T08:33:19.473Z,129.30
2023-02-22T08:35:52.284Z,139.35
2023-02-22T08:38:30.543Z,134.43
2023-02-22T08:41:02.379Z,139.48
2023-02-22T08:43:34.256Z,142.25
2023-02-22T08:46:06.223Z,147.70
2023-02-22T08:48:38.255Z,133.20
2023-02-22T08:51:10.130Z,134.95
2023-02-22T08:53:41.968Z,129.55
2023-02-22T08:56:13.855Z,131.48
2023-02-22T08:58:45.960Z,125.13
2023-02-22T09:01:24.884Z,123.70
2023-02-22T09:04:03.562Z,128.90
2023-02-22T09:06:35.843Z,123.60
2023-02-22T09:09:08.019Z,120.18
2023-02-22T09:11:39.915Z,121.60
2023-02-22T09:14:14.502Z,109.53
2023-02-22T09:16:46.441Z,94.03
2023-02-22T09:19:18.388Z,78.15
2023-02-22T09:21:54.978Z,88.82
2023-02-22T09:24:28.326Z,76.95
2023-02-22T09:27:01.125Z,75.93
2023-02-22T09:29:33.550Z,77.72
2023-02-22T09:32:05.789Z,75.35
2023-02-22T09:34:37.775Z,79.43
2023-02-22T09:37:09.745Z,84.07
2023-02-22T09:39:42.121Z,80.18
2023-02-22T09:42:38.209Z,83.28
2023-02-22T09:45:18.472Z,88.93
2023-02-22T09:47:58.585Z,91.32
2023-02-22T09:50:42.319Z,98.32
2023-02-22T09:53:22.116Z,84.53
2023-02-22T09:55:57.375Z,87.95
2023-02-22T09:58:37.372Z,92.18
2023-02-22T10:01:29.906Z,85.93
2023-02-22T10:04:14.119Z,101.00
2023-02-22T10:07:06.214Z,97.70
2023-02-22T10:09:45.280Z,91.18
2023-02-22T10:12:39.015Z,100.53
2023-02-22T10:15:34.342Z,100.22
2023-02-22T10:18:18.018Z,98.88
2023-02-22T10:21:23.812Z,95.95
2023-02-22T10:24:16.576Z,96.18
2023-02-22T10:27:22.618Z,92.25
2023-02-22T10:30:29.759Z,94.15
2023-02-22T10:33:15.597Z,94.70
2023-02-22T10:35:48.186Z,99.47
2023-02-22T10:38:24.498Z,92.72
2023-02-22T10:41:08.665Z,100.35
2023-02-22T10:43:42.962Z,96.43
2023-02-22T10:46:19.464Z,96.75
2023-02-22T10:48:55.137Z,92.85
2023-02-22T10:51:27.039Z,94.75
2023-02-22T10:54:28.508Z,101.43
2023-02-22T10:57:00.925Z,92.82
2023-02-22T10:59:39.260Z,97.97
2023-02-22T11:02:21.344Z,101.72
2023-02-22T11:04:56.794Z,96.35
2023-02-22T11:07:36.603Z,93.38
2023-02-22T11:10:09.599Z,93.63
2023-02-22T11:12:47.836Z,90.60
2023-02-22T11:15:19.778Z,83.05
2023-02-22T11:17:55.278Z,89.00
2023-02-22T11:20:35.022Z,91.38
2023-02-22T11:23:08.333Z,88.25
2023-02-22T11:25:42.576Z,86.50
2023-02-22T11:28:33.086Z,90.47
2023-02-22T11:31:18.881Z,89.65
2023-02-22T11:33:59.885Z,78.80
2023-02-22T11:36:41.591Z,93.57
2023-02-22T11:39:22.787Z,89.15
2023-02-22T11:41:58.869Z,88.82
2023-02-22T11:44:32.595Z,87.57
2023-02-22T11:47:11.466Z,87.47
2023-02-22T11:49:45.836Z,93.70
2023-02-22T11:52:41.203Z,93.82
2023-02-22T11:55:41.889Z,92.90
2023-02-22T11:58:20.898Z,88.63
2023-02-22T12:00:55.784Z,94.60
2023-02-22T12:03:28.956Z,94.68
2023-02-22T12:06:12.861Z,90.25
2023-02-22T12:09:00.774Z,91.53
2023-02-22T12:12:06.176Z,92.10
2023-02-22T12:14:55.442Z,93.47
2023-02-22T12:17:43.658Z,92.20
2023-02-22T12:20:25.195Z,98.28
2023-02-22T12:23:13.012Z,88.40
2023-02-22T12:25:58.579Z,96.97
2023-02-22T12:28:36.095Z,93.82
2023-02-22T12:31:30.002Z,94.45
2023-02-22T12:34:11.939Z,93.43
2023-02-22T12:36:51.809Z,93.68
2023-02-22T12:39:53.142Z,92.40
2023-02-22T12:43:12.629Z,100.72
2023-02-22T12:46:03.590Z,89.60
2023-02-22T12:48:56.961Z,90.45
2023-02-22T12:51:31.820Z,100.75
2023-02-22T12:54:21.097Z,96.38
2023-02-22T12:57:17.501Z,95.05
2023-02-22T12:59:51.195Z,94.07
2023-02-22T13:02:47.479Z,96.50
2023-02-22T13:05:20.696Z,92.82
2023-02-22T13:08:02.736Z,101.22
2023-02-22T13:11:01.554Z,89.65
2023-02-22T13:13:42.193Z,102.30
2023-02-22T13:16:35.822Z,91.30
2023-02-22T13:20:02.072Z,99.57
2023-02-22T13:23:00.953Z,96.40
2023-02-22T13:26:09.827Z,98.72
2023-02-22T13:28:57.886Z,102.03
2023-02-22T13:31:51.255Z,92.80
2023-02-22T13:34:30.984Z,100.70
2023-02-22T13:37:45.819Z,93.72
2023-02-22T13:40:36.620Z,93.45
2023-02-22T13:43:32.098Z,97.90
2023-02-22T13:46:17.917Z,97.28
2023-02-22T13:49:30.349Z,98.43
2023-02-22T13:52:12.205Z,99.38
2023-02-22T13:54:54.713Z,94.90
2023-02-22T13:57:38.003Z,99.47
2023-02-22T14:00:15.995Z,96.13
2023-02-22T14:03:14.321Z,99.40
2023-02-22T14:05:46.131Z,96.82
2023-02-22T14:08:36.835Z,98.80
2023-02-22T14:11:14.855Z,96.45
2023-02-22T14:14:03.286Z,104.35
2023-02-22T14:16:38.950Z,102.32
2023-02-22T14:19:13.424Z,98.07
2023-02-22T14:22:09.778Z,100.50
2023-02-22T14:24:48.937Z,96.53
2023-02-22T14:27:20.885Z,96.10
2023-02-22T14:30:04.704Z,96.30
2023-02-22T14:32:36.648Z,100.35
2023-02-22T14:35:27.298Z,93.10
2023-02-22T14:38:04.701Z,93.05
2023-02-22T14:40:45.224Z,93.60
2023-02-22T14:43:21.169Z,93.97
2023-02-22T14:46:02.210Z,94.82
2023-02-22T14:48:40.043Z,98.85
2023-02-22T14:51:27.055Z,90.45
2023-02-22T14:54:25.993Z,100.80
2023-02-22T14:57:26.343Z,101.63
2023-02-22T15:00:25.585Z,74.30
2023-02-22T15:02:59.836Z,98.43
2023-02-22T15:05:38.825Z,92.32
2023-02-22T15:08:17.567Z,96.38
2023-02-22T15:10:54.850Z,99.65
2023-02-22T15:13:31.502Z,100.40
2023-02-22T15:16:08.364Z,100.97
2023-02-22T15:18:43.475Z,101.75
2023-02-22T15:21:29.993Z,105.63
2023-02-22T15:24:07.914Z,93.55
2023-02-22T15:26:59.253Z,94.97
2023-02-22T15:29:39.616Z,98.10
2023-02-22T15:32:29.352Z,98.90
2023-02-22T15:35:26.490Z,93.43
2023-02-22T15:38:04.031Z,96.85
2023-02-22T15:40:36.388Z,94.55
2023-02-22T15:43:28.530Z,118.57
2023-02-22T15:46:01.278Z,109.43
2023-02-22T15:48:35.694Z,99.25
2023-02-22T15:51:09.407Z,99.75
2023-02-22T15:53:51.070Z,94.28
2023-02-22T15:56:30.060Z,105.88
2023-02-22T15:59:13.545Z,96.78
2023-02-22T16:01:48.111Z,97.40
2023-02-22T16:04:23.745Z,93.07
2023-02-22T16:07:07.144Z,98.38
2023-02-22T16:09:39.040Z,94.03
2023-02-22T16:12:28.360Z,95.28
2023-02-22T16:15:01.656Z,91.43
2023-02-22T16:17:35.665Z,95.07
2023-02-22T16:20:11.717Z,98.45
2023-02-22T16:22:50.552Z,99.95
2023-02-22T16:25:32.869Z,100.70
2023-02-22T16:28:26.977Z,95.05
2023-02-22T16:31:00.337Z,95.40
2023-02-22T16:33:34.058Z,98.28
2023-02-22T16:36:08.156Z,99.60
2023-02-22T16:38:43.764Z,97.72
2023-02-22T16:41:21.966Z,99.47
2023-02-22T16:43:54.689Z,105.05
2023-02-22T16:46:26.805Z,105.72
2023-02-22T16:49:03.526Z,102.35
2023-02-22T16:51:48.458Z,106.43
2023-02-22T16:54:34.311Z,99.60
2023-02-22T16:57:13.085Z,100.07
2023-02-22T16:59:50.371Z,103.00
2023-02-22T17:02:23.537Z,102.85
2023-02-22T17:04:58.167Z,112.72
2023-02-22T17:07:31.078Z,112.90
2023-02-22T17:10:03.336Z,105.40
2023-02-22T17:12:35.267Z,102.18
2023-02-22T17:15:07.471Z,103.68
2023-02-22T17:17:39.426Z,102.55
2023-02-22T17:20:13.253Z,107.82
2023-02-22T17:22:45.675Z,104.00
2023-02-22T17:25:22.134Z,95.78
2023-02-22T17:27:54.552Z,103.47
2023-02-22T17:30:26.865Z,105.40
2023-02-22T17:33:10.048Z,109.22
2023-02-22T17:35:42.315Z,99.07
2023-02-22T17:38:18.508Z,111.80
2023-02-22T17:40:54.843Z,112.60
2023-02-22T17:43:31.019Z,106.68
2023-02-22T17:46:08.043Z,110.18
2023-02-22T17:48:40.010Z,114.25
2023-02-22T17:51:12.386Z,112.78
2023-02-22T17:53:44.252Z,103.20
2023-02-22T17:56:20.914Z,107.93
2023-02-22T17:58:55.143Z,103.15
2023-02-22T18:01:30.198Z,109.82
2023-02-22T18:04:03.694Z,106.53
2023-02-22T18:06:36.329Z,102.25
2023-02-22T18:09:10.941Z,121.90
2023-02-22T18:11:43.133Z,115.28
2023-02-22T18:14:15.089Z,117.10
2023-02-22T18:16:48.041Z,116.32
2023-02-22T18:19:23.329Z,132.68
2023-02-22T18:22:00.201Z,138.35
2023-02-22T18:24:34.356Z,146.70
2023-02-22T18:27:06.489Z,151.35
2023-02-22T18:29:38.472Z,131.80
2023-02-22T18:32:13.420Z,118.97
2023-02-22T18:34:48.605Z,125.18
2023-02-22T18:37:20.750Z,126.50
2023-02-22T18:39:56.703Z,127.95
2023-02-22T18:42:29.340Z,133.25
2023-02-22T18:45:04.564Z,124.72
2023-02-22T18:47:43.210Z,121.50
2023-02-22T18:50:18.681Z,122.53
2023-02-22T18:52:51.089Z,119.35
2023-02-22T18:55:25.100Z,129.65
2023-02-22T18:57:57.010Z,137.52
2023-02-22T19:00:30.333Z,131.00
2023-02-22T19:03:02.574Z,116.90
2023-02-22T19:05:35.502Z,122.78
2023-02-22T19:08:11.690Z,128.95
2023-02-22T19:10:43.930Z,134.43
2023-02-22T19:13:16.742Z,121.47
2023-02-22T19:15:49.068Z,125.40
2023-02-22T19:18:21.806Z,121.28
2023-02-22T19:21:08.834Z,130.05
2023-02-22T19:23:48.291Z,130.13
2023-02-22T19:26:24.743Z,122.47
2023-02-22T19:28:58.681Z,119.72
2023-02-22T19:31:34.263Z,131.00
2023-02-22T19:34:15.456Z,124.57
2023-02-22T19:36:48.075Z,129.30
2023-02-22T19:39:28.142Z,124.53
2023-02-22T19:42:02.022Z,131.02
2023-02-22T19:44:35.339Z,130.45
2023-02-22T19:47:10.249Z,130.10
2023-02-22T19:49:43.649Z,130.15
2023-02-22T19:52:15.914Z,129.73
2023-02-22T19:54:49.771Z,149.10
2023-02-22T19:57:25.212Z,137.55
2023-02-22T19:59:58.336Z,142.13
2023-02-22T20:02:35.912Z,135.13
2023-02-22T20:05:12.097Z,116.90
2023-02-22T20:07:44.152Z,123.97
2023-02-22T20:10:17.353Z,127.60
2023-02-22T20:12:49.393Z,130.40
2023-02-22T20:15:23.949Z,135.52
2023-02-22T20:17:55.945Z,136.25
2023-02-22T20:20:32.421Z,361.73
2023-02-22T20:23:11.438Z,128.27
2023-02-22T20:25:45.157Z,121.55
2023-02-22T20:28:23.388Z,128.90
2023-02-22T20:30:57.323Z,266.83
2023-02-22T20:33:32.663Z,130.45
2023-02-22T20:36:06.542Z,124.13
2023-02-22T20:38:40.369Z,123.97
2023-02-22T20:41:25.591Z,125.88
2023-02-22T20:44:00.365Z,123.97
2023-02-22T20:46:33.356Z,123.03
2023-02-22T20:49:12.350Z,128.70
2023-02-22T20:51:45.777Z,204.43
2023-02-22T20:54:19.620Z,159.93
2023-02-22T20:56:53.180Z,127.68
2023-02-22T20:59:26.597Z,129.45
2023-02-22T21:02:03.071Z,129.90
2023-02-22T21:04:39.183Z,126.97
2023-02-22T21:07:11.316Z,130.02
2023-02-22T21:09:44.406Z,129.15
2023-02-22T21:12:16.585Z,132.27
2023-02-22T21:14:49.395Z,129.05
2023-02-22T21:17:28.777Z,126.72
2023-02-22T21:20:03.020Z,124.95
2023-02-22T21:22:34.902Z,124.97
2023-02-22T21:25:07.145Z,123.30
2023-02-22T21:27:39.050Z,132.55
2023-02-22T21:30:11.430Z,133.93
2023-02-22T21:32:43.428Z,131.77
2023-02-22T21:35:16.333Z,133.07
2023-02-22T21:37:48.564Z,136.00
2023-02-22T21:40:20.785Z,137.25
2023-02-22T21:42:53.391Z,140.75
2023-02-22T21:45:26.272Z,144.88
2023-02-22T21:48:00.387Z,138.88
2023-02-22T21:50:36.829Z,144.10
2023-02-22T21:53:08.806Z,146.88
2023-02-22T21:55:41.205Z,143.77
2023-02-22T21:58:13.119Z,145.85
2023-02-22T22:00:45.013Z,134.48
2023-02-22T22:03:49.211Z,146.48
2023-02-22T22:06:21.351Z,136.80
2023-02-22T22:08:53.768Z,137.85
2023-02-22T22:11:26.094Z,140.10
2023-02-22T22:13:59.692Z,127.25
2023-02-22T22:16:33.108Z,138.32
2023-02-22T22:19:05.014Z,138.35
2023-02-22T22:21:40.730Z,137.88
2023-02-22T22:24:13.416Z,134.98
2023-02-22T22:26:45.316Z,140.07
2023-02-22T22:29:18.907Z,138.82
2023-02-22T22:31:51.738Z,133.38
2023-02-22T22:34:30.303Z,133.40
2023-02-22T22:37:03.069Z,130.68
2023-02-22T22:39:35.482Z,138.68
2023-02-22T22:42:09.127Z,147.10
2023-02-22T22:44:42.214Z,136.75
2023-02-22T22:47:14.283Z,141.95
2023-02-22T22:49:47.950Z,139.52
2023-02-22T22:52:21.226Z,142.27
2023-02-22T22:54:55.071Z,134.25
2023-02-22T22:57:27.545Z,136.27
2023-02-22T23:00:01.074Z,131.23
2023-02-22T23:02:34.528Z,130.25
2023-02-22T23:05:09.443Z,145.30
2023-02-22T23:07:42.113Z,143.23
2023-02-22T23:10:14.046Z,139.35
2023-02-22T23:12:46.014Z,140.48
2023-02-22T23:15:18.468Z,138.82
2023-02-22T23:17:56.161Z,146.98
2023-02-22T23:20:28.080Z,141.95
2023-02-22T23:23:02.774Z,135.20
2023-02-22T23:25:34.629Z,129.55
2023-02-22T23:28:14.556Z,125.38
2023-02-22T23:30:46.415Z,129.20
2023-02-22T23:33:19.307Z,136.45
2023-02-22T23:35:51.211Z,131.65
2023-02-22T23:38:23.512Z,132.38
2023-02-22T23:40:57.726Z,124.45
2023-02-22T23:43:32.586Z,130.55
2023-02-22T23:46:10.856Z,121.30
2023-02-22T23:48:46.752Z,132.13
2023-02-22T23:51:25.417Z,128.32
2023-02-22T23:53:57.500Z,127.75
2023-02-22T23:56:30.887Z,135.63
2023-02-22T23:59:11.266Z,126.57
